createdAt,value
2022-11-20T00:00:23.054Z,71.30
2022-11-20T00:03:17.580Z,73.70
2022-11-20T00:06:14.947Z,72.90
2022-11-20T00:09:09.363Z,70.70
2022-11-20T00:12:04.009Z,71.40
2022-11-20T00:14:58.455Z,70.50
2022-11-20T00:17:52.993Z,70.70
2022-11-20T00:20:47.460Z,70.60
2022-11-20T00:23:42.187Z,70.70
2022-11-20T00:26:36.670Z,73.50
2022-11-20T00:29:31.353Z,75.80
2022-11-20T00:32:25.819Z,76.70
2022-11-20T00:35:20.356Z,78.60
2022-11-20T00:38:15.155Z,84.10
2022-11-20T00:41:11.650Z,87.60
2022-11-20T00:44:06.177Z,89.40
2022-11-20T00:47:00.626Z,90.90
2022-11-20T00:49:55.010Z,93.00
2022-11-20T00:52:49.536Z,94.70
2022-11-20T00:55:44.007Z,96.30
2022-11-20T00:58:40.442Z,98.70
2022-11-20T01:01:34.884Z,99.90
2022-11-20T01:04:30.399Z,99.90
2022-11-20T01:07:24.874Z,99.90
2022-11-20T01:10:19.647Z,99.90
2022-11-20T01:13:32.006Z,99.90
2022-11-20T01:16:29.393Z,99.90
2022-11-20T01:19:26.135Z,95.80
2022-11-20T01:22:20.712Z,95.60
2022-11-20T01:25:15.156Z,94.00
2022-11-20T01:28:09.563Z,91.70
2022-11-20T01:31:13.288Z,91.90
2022-11-20T01:34:09.896Z,92.00
2022-11-20T01:37:04.312Z,92.80
2022-11-20T01:39:58.727Z,91.50
2022-11-20T01:43:21.965Z,90.50
2022-11-20T01:46:20.094Z,91.30
2022-11-20T01:49:24.285Z,90.60
2022-11-20T01:52:29.408Z,87.50
2022-11-20T01:55:31.963Z,86.90
2022-11-20T01:58:31.435Z,87.90
2022-11-20T02:01:25.925Z,86.30
2022-11-20T02:04:21.134Z,87.00
2022-11-20T02:07:35.852Z,82.30
2022-11-20T02:10:30.872Z,83.60
2022-11-20T02:13:43.311Z,82.80
2022-11-20T02:16:49.624Z,80.60
2022-11-20T02:19:44.053Z,80.00
2022-11-20T02:22:59.336Z,80.90
2022-11-20T02:25:55.349Z,79.60
2022-11-20T02:28:50.174Z,77.30
2022-11-20T02:31:46.113Z,79.80
2022-11-20T02:35:32.922Z,80.30
2022-11-20T02:38:27.534Z,78.00
2022-11-20T02:41:36.455Z,77.90
2022-11-20T02:44:30.983Z,77.80
2022-11-20T02:47:39.745Z,77.30
2022-11-20T02:50:34.170Z,77.50
2022-11-20T02:53:28.722Z,74.10
2022-11-20T02:56:23.425Z,73.10
2022-11-20T02:59:18.134Z,71.40
2022-11-20T03:02:12.928Z,70.80
2022-11-20T03:05:07.573Z,65.50
2022-11-20T03:08:01.899Z,65.70
2022-11-20T03:10:56.367Z,65.90
2022-11-20T03:13:50.751Z,67.40
2022-11-20T03:16:45.158Z,67.50
2022-11-20T03:19:39.638Z,67.70
2022-11-20T03:22:34.227Z,72.50
2022-11-20T03:25:28.666Z,81.70
2022-11-20T03:28:23.328Z,88.00
2022-11-20T03:31:19.729Z,90.80
2022-11-20T03:34:15.139Z,93.70
2022-11-20T03:37:09.785Z,96.30
2022-11-20T03:40:04.460Z,98.70
2022-11-20T03:42:58.772Z,99.70
2022-11-20T03:45:53.254Z,97.50
2022-11-20T03:48:51.293Z,96.40
2022-11-20T03:51:46.607Z,93.70
2022-11-20T03:54:41.748Z,90.20
2022-11-20T03:57:36.525Z,90.10
2022-11-20T04:00:30.858Z,89.30
2022-11-20T04:03:25.293Z,89.00
2022-11-20T04:06:28.554Z,86.10
2022-11-20T04:09:23.281Z,86.70
2022-11-20T04:12:17.855Z,87.80
2022-11-20T04:15:12.680Z,85.90
2022-11-20T04:18:07.086Z,87.80
2022-11-20T04:21:02.074Z,87.80
2022-11-20T04:23:57.069Z,89.60
2022-11-20T04:26:51.431Z,85.30
2022-11-20T04:29:46.100Z,83.40
2022-11-20T04:32:40.880Z,83.10
2022-11-20T04:35:37.697Z,82.30
2022-11-20T04:38:32.276Z,85.70
2022-11-20T04:41:29.148Z,84.10
2022-11-20T04:44:23.843Z,82.50
2022-11-20T04:47:19.258Z,83.00
2022-11-20T04:50:14.777Z,81.50
2022-11-20T04:53:10.283Z,79.80
2022-11-20T04:56:08.076Z,80.60
2022-11-20T04:59:05.917Z,80.70
2022-11-20T05:02:00.550Z,80.20
2022-11-20T05:04:55.620Z,82.00
2022-11-20T05:07:50.046Z,83.60
2022-11-20T05:10:44.455Z,83.00
2022-11-20T05:13:39.627Z,81.20
2022-11-20T05:16:36.457Z,81.20
2022-11-20T05:19:30.883Z,81.10
2022-11-20T05:22:25.375Z,78.80
2022-11-20T05:25:19.987Z,80.50
2022-11-20T05:28:14.449Z,79.90
2022-11-20T05:31:20.718Z,80.30
2022-11-20T05:34:18.039Z,79.20
2022-11-20T05:37:12.498Z,77.50
2022-11-20T05:40:07.335Z,77.80
2022-11-20T05:43:02.323Z,75.10
2022-11-20T05:45:57.473Z,76.10
2022-11-20T05:48:52.140Z,74.70
2022-11-20T05:51:46.503Z,76.40
2022-11-20T05:54:40.957Z,76.70
2022-11-20T05:57:35.664Z,77.20
2022-11-20T06:00:30.120Z,78.30
2022-11-20T06:03:24.657Z,80.50
2022-11-20T06:06:20.494Z,82.80
2022-11-20T06:09:14.936Z,81.40
2022-11-20T06:12:09.841Z,81.10
2022-11-20T06:15:04.219Z,81.70
2022-11-20T06:17:59.097Z,87.40
2022-11-20T06:21:01.374Z,88.10
2022-11-20T06:23:56.412Z,90.30
2022-11-20T06:26:50.750Z,91.30
2022-11-20T06:29:45.210Z,92.00
2022-11-20T06:32:39.585Z,93.10
2022-11-20T06:35:33.971Z,93.90
2022-11-20T06:38:29.435Z,94.50
2022-11-20T06:41:24.732Z,94.40
2022-11-20T06:44:19.217Z,93.70
2022-11-20T06:47:13.773Z,93.80
2022-11-20T06:50:08.522Z,93.60
2022-11-20T06:53:07.166Z,95.00
2022-11-20T06:56:01.817Z,95.60
2022-11-20T06:58:56.340Z,96.10
2022-11-20T07:01:50.826Z,95.90
2022-11-20T07:04:45.259Z,95.50
2022-11-20T07:07:39.819Z,95.10
2022-11-20T07:10:34.994Z,96.10
2022-11-20T07:13:30.318Z,97.10
2022-11-20T07:16:24.833Z,98.50
2022-11-20T07:19:19.388Z,98.70
2022-11-20T07:22:13.945Z,98.70
2022-11-20T07:25:09.293Z,98.60
2022-11-20T07:28:04.393Z,98.50
2022-11-20T07:30:58.739Z,98.70
2022-11-20T07:33:53.160Z,98.70
2022-11-20T07:36:47.520Z,98.50
2022-11-20T07:39:42.123Z,97.80
2022-11-20T07:42:36.451Z,97.70
2022-11-20T07:45:31.048Z,98.00
2022-11-20T07:48:25.890Z,97.80
2022-11-20T07:51:20.358Z,98.00
2022-11-20T07:54:15.606Z,97.30
2022-11-20T07:57:09.990Z,97.40
2022-11-20T08:00:05.948Z,98.00
2022-11-20T08:03:01.086Z,97.60
2022-11-20T08:05:55.583Z,97.50
2022-11-20T08:08:50.064Z,97.80
2022-11-20T08:12:02.486Z,97.80
2022-11-20T08:14:59.062Z,97.50
2022-11-20T08:18:23.194Z,98.30
2022-11-20T08:21:08.236Z,97.70
2022-11-20T08:24:03.106Z,96.70
2022-11-20T08:26:59.702Z,94.80
2022-11-20T08:29:54.165Z,94.20
2022-11-20T08:32:48.581Z,95.40
2022-11-20T08:35:43.905Z,96.10
2022-11-20T08:38:38.611Z,95.30
2022-11-20T08:41:35.250Z,95.50
2022-11-20T08:44:29.858Z,94.20
2022-11-20T08:47:24.346Z,93.90
2022-11-20T08:50:20.228Z,93.40
2022-11-20T08:53:14.679Z,93.50
2022-11-20T08:56:09.517Z,92.80
2022-11-20T08:59:27.045Z,92.90
2022-11-20T09:02:18.616Z,92.20
2022-11-20T09:05:12.951Z,92.10
2022-11-20T09:08:07.482Z,93.40
2022-11-20T09:11:02.718Z,91.70
2022-11-20T09:13:57.120Z,91.60
2022-11-20T09:16:51.511Z,91.30
2022-11-20T09:19:46.152Z,91.10
2022-11-20T09:22:43.151Z,88.20
2022-11-20T09:25:37.638Z,88.90
2022-11-20T09:28:32.302Z,89.30
2022-11-20T09:31:28.467Z,89.60
2022-11-20T09:34:22.786Z,89.60
2022-11-20T09:37:17.197Z,88.70
2022-11-20T09:40:22.833Z,89.20
2022-11-20T09:43:23.881Z,89.90
2022-11-20T09:46:31.733Z,89.10
2022-11-20T09:49:38.637Z,89.10
2022-11-20T09:53:03.614Z,89.80
2022-11-20T09:55:59.351Z,90.50
2022-11-20T09:59:06.887Z,93.30
2022-11-20T10:02:03.410Z,95.20
2022-11-20T10:05:22.130Z,97.00
2022-11-20T10:08:27.877Z,98.30
2022-11-20T10:11:42.284Z,98.50
2022-11-20T10:15:10.465Z,99.60
2022-11-20T10:18:23.169Z,99.90
2022-11-20T10:21:23.840Z,99.90
2022-11-20T10:24:39.741Z,99.90
2022-11-20T10:28:19.049Z,99.90
2022-11-20T10:31:31.217Z,99.90
2022-11-20T10:34:37.754Z,99.90
2022-11-20T10:37:36.869Z,99.90
2022-11-20T10:40:39.274Z,99.90
2022-11-20T10:43:37.013Z,99.90
2022-11-20T10:47:02.412Z,99.90
2022-11-20T10:50:01.319Z,99.90
2022-11-20T10:53:20.092Z,99.90
2022-11-20T10:56:49.644Z,99.90
2022-11-20T11:00:07.596Z,99.90
2022-11-20T11:03:05.117Z,99.90
2022-11-20T11:06:05.550Z,99.90
2022-11-20T11:09:03.914Z,99.90
2022-11-20T11:12:00.755Z,99.90
2022-11-20T11:15:00.327Z,99.90
2022-11-20T11:17:55.235Z,99.90
2022-11-20T11:20:53.982Z,99.90
2022-11-20T11:23:48.488Z,99.90
2022-11-20T11:26:53.207Z,99.90
2022-11-20T11:29:49.162Z,99.90
2022-11-20T11:32:43.729Z,99.90
2022-11-20T11:35:51.936Z,99.90
2022-11-20T11:38:46.993Z,99.90
2022-11-20T11:41:41.493Z,99.90
2022-11-20T11:44:55.494Z,99.90
2022-11-20T11:47:51.377Z,99.90
2022-11-20T11:50:54.166Z,99.90
2022-11-20T11:53:48.708Z,99.90
2022-11-20T11:56:43.247Z,99.90
2022-11-20T11:59:47.331Z,98.80
2022-11-20T12:02:47.568Z,97.70
2022-11-20T12:05:50.590Z,97.50
2022-11-20T12:09:13.164Z,97.10
2022-11-20T12:12:42.476Z,97.00
2022-11-20T12:15:38.101Z,94.50
2022-11-20T12:18:33.582Z,95.00
2022-11-20T12:21:59.849Z,95.10
2022-11-20T12:25:07.222Z,91.50
2022-11-20T12:28:28.046Z,94.50
2022-11-20T12:31:57.763Z,96.20
2022-11-20T12:35:24.061Z,96.60
2022-11-20T12:38:33.518Z,98.10
2022-11-20T12:42:24.424Z,99.10
2022-11-20T12:45:34.364Z,99.90
2022-11-20T12:48:46.755Z,99.90
2022-11-20T12:52:11.489Z,99.90
2022-11-20T12:55:16.815Z,99.90
2022-11-20T12:58:22.844Z,99.00
2022-11-20T13:01:48.278Z,99.50
2022-11-20T13:05:15.049Z,99.10
2022-11-20T13:08:21.558Z,99.00
2022-11-20T13:11:42.465Z,99.00
2022-11-20T13:14:43.179Z,99.80
2022-11-20T13:17:45.860Z,99.90
2022-11-20T13:20:48.909Z,99.90
2022-11-20T13:23:43.508Z,99.70
2022-11-20T13:26:37.981Z,99.10
2022-11-20T13:29:32.837Z,99.30
2022-11-20T13:32:27.458Z,98.80
2022-11-20T13:35:32.240Z,98.80
2022-11-20T13:38:28.817Z,98.80
2022-11-20T13:41:37.429Z,98.40
2022-11-20T13:44:46.036Z,98.30
2022-11-20T13:47:49.773Z,97.90
2022-11-20T13:51:09.808Z,98.10
2022-11-20T13:54:23.012Z,97.80
2022-11-20T13:57:42.993Z,97.00
2022-11-20T14:01:06.791Z,97.60
2022-11-20T14:04:08.587Z,97.40
2022-11-20T14:07:03.239Z,97.00
2022-11-20T14:09:59.886Z,97.30
2022-11-20T14:12:57.225Z,97.20
2022-11-20T14:15:59.291Z,98.70
2022-11-20T14:18:54.085Z,98.80
2022-11-20T14:21:49.552Z,99.70
2022-11-20T14:24:43.958Z,99.90
2022-11-20T14:27:42.326Z,99.90
2022-11-20T14:30:52.241Z,99.90
2022-11-20T14:33:46.643Z,99.90
2022-11-20T14:36:41.494Z,99.90
2022-11-20T14:39:44.420Z,99.90
2022-11-20T14:42:39.603Z,99.90
2022-11-20T14:45:34.538Z,99.90
2022-11-20T14:48:43.630Z,99.90
2022-11-20T14:51:43.576Z,99.90
2022-11-20T14:55:01.768Z,99.90
2022-11-20T14:58:01.628Z,99.90
2022-11-20T15:01:10.225Z,99.90
2022-11-20T15:04:14.521Z,99.90
2022-11-20T15:07:09.120Z,99.90
2022-11-20T15:10:06.844Z,99.90
2022-11-20T15:13:18.318Z,99.90
2022-11-20T15:16:24.563Z,99.90
2022-11-20T15:19:29.466Z,99.90
2022-11-20T15:22:23.907Z,99.90
2022-11-20T15:25:20.166Z,99.90
2022-11-20T15:28:37.433Z,99.90
2022-11-20T15:31:31.826Z,99.90
2022-11-20T15:34:26.389Z,99.90
2022-11-20T15:37:22.246Z,99.90
2022-11-20T15:40:19.222Z,99.90
2022-11-20T15:43:14.118Z,99.90
2022-11-20T15:46:14.440Z,99.90
2022-11-20T15:49:11.794Z,99.90
2022-11-20T15:52:05.649Z,99.90
2022-11-20T15:55:00.128Z,99.90
2022-11-20T15:57:54.548Z,99.90
2022-11-20T16:00:49.381Z,99.90
2022-11-20T16:03:44.025Z,99.90
2022-11-20T16:06:38.417Z,99.90
2022-11-20T16:09:32.819Z,99.90
2022-11-20T16:12:45.479Z,99.90
2022-11-20T16:15:48.744Z,99.90
2022-11-20T16:18:43.103Z,99.90
2022-11-20T16:21:39.532Z,99.90
2022-11-20T16:24:34.105Z,99.90
2022-11-20T16:27:28.468Z,99.90
2022-11-20T16:30:22.920Z,99.90
2022-11-20T16:33:19.676Z,99.90
2022-11-20T16:36:15.864Z,99.90
2022-11-20T16:39:10.206Z,99.90
2022-11-20T16:42:08.546Z,99.90
2022-11-20T16:45:03.004Z,99.90
2022-11-20T16:47:57.418Z,99.90
2022-11-20T16:50:53.856Z,99.90
2022-11-20T16:53:48.345Z,99.90
2022-11-20T16:56:42.772Z,99.90
2022-11-20T16:59:37.674Z,99.90
2022-11-20T17:02:32.093Z,99.90
2022-11-20T17:05:26.654Z,99.90
2022-11-20T17:08:21.011Z,99.90
2022-11-20T17:11:18.193Z,99.90
2022-11-20T17:14:13.699Z,99.90
2022-11-20T17:17:08.090Z,99.90
2022-11-20T17:20:02.430Z,99.90
2022-11-20T17:22:56.835Z,99.90
2022-11-20T17:25:51.194Z,99.90
2022-11-20T17:28:54.785Z,99.90
2022-11-20T17:31:50.093Z,99.90
2022-11-20T17:34:44.529Z,99.90
2022-11-20T17:37:38.897Z,99.90
2022-11-20T17:40:33.815Z,99.90
2022-11-20T17:43:31.528Z,99.90
2022-11-20T17:46:34.080Z,99.90
2022-11-20T17:49:28.526Z,99.90
2022-11-20T17:52:23.697Z,99.90
2022-11-20T17:55:18.896Z,99.90
2022-11-20T17:58:13.284Z,99.90
2022-11-20T18:01:11.703Z,99.90
2022-11-20T18:04:06.419Z,99.90
2022-11-20T18:07:00.853Z,99.90
2022-11-20T18:09:55.310Z,99.90
2022-11-20T18:12:49.808Z,99.90
2022-11-20T18:15:44.267Z,99.90
2022-11-20T18:18:38.708Z,99.90
2022-11-20T18:21:33.595Z,99.90
2022-11-20T18:24:28.158Z,99.90
2022-11-20T18:27:25.178Z,99.90
2022-11-20T18:30:19.621Z,99.90
2022-11-20T18:33:13.974Z,99.90
2022-11-20T18:36:23.346Z,99.90
2022-11-20T18:39:18.273Z,99.90
2022-11-20T18:42:35.607Z,99.90
2022-11-20T18:45:31.541Z,99.90
2022-11-20T18:48:25.907Z,99.90
2022-11-20T18:51:20.381Z,99.90
2022-11-20T18:54:15.774Z,99.90
2022-11-20T18:57:11.933Z,99.90
2022-11-20T19:00:10.326Z,99.90
2022-11-20T19:03:04.841Z,99.90
2022-11-20T19:05:59.338Z,99.90
2022-11-20T19:08:54.809Z,99.90
2022-11-20T19:11:49.234Z,99.90
2022-11-20T19:14:43.845Z,99.90
2022-11-20T19:17:38.617Z,99.90
2022-11-20T19:20:33.077Z,99.90
2022-11-20T19:23:27.486Z,99.90
2022-11-20T19:26:22.409Z,99.90
2022-11-20T19:29:18.557Z,99.90
2022-11-20T19:32:15.808Z,99.90
2022-11-20T19:35:09.664Z,99.90
2022-11-20T19:38:05.681Z,99.90
2022-11-20T19:41:00.135Z,99.90
2022-11-20T19:43:54.514Z,99.00
2022-11-20T19:46:48.883Z,98.20
2022-11-20T19:49:43.422Z,97.70
2022-11-20T19:52:37.921Z,97.10
2022-11-20T19:55:32.304Z,95.90
2022-11-20T19:58:27.305Z,95.80
2022-11-20T20:01:24.626Z,94.80
2022-11-20T20:04:18.488Z,94.20
2022-11-20T20:07:12.977Z,93.50
2022-11-20T20:10:08.147Z,93.00
2022-11-20T20:13:02.525Z,93.00
2022-11-20T20:15:57.980Z,92.90
2022-11-20T20:19:00.666Z,93.50
2022-11-20T20:21:55.097Z,93.30
2022-11-20T20:24:49.489Z,92.80
2022-11-20T20:27:43.963Z,92.40
2022-11-20T20:30:38.613Z,92.30
2022-11-20T20:33:33.061Z,90.70
2022-11-20T20:36:27.819Z,90.70
2022-11-20T20:39:22.698Z,88.50
2022-11-20T20:42:17.287Z,87.80
2022-11-20T20:45:12.381Z,88.50
2022-11-20T20:48:07.399Z,89.30
2022-11-20T20:51:04.325Z,89.90
2022-11-20T20:53:59.008Z,88.80
2022-11-20T20:56:53.931Z,88.00
2022-11-20T20:59:51.046Z,87.50
2022-11-20T21:02:45.489Z,87.30
2022-11-20T21:05:39.864Z,89.70
2022-11-20T21:08:37.963Z,90.20
2022-11-20T21:11:34.457Z,90.20
2022-11-20T21:14:28.820Z,88.80
2022-11-20T21:17:23.284Z,89.60
2022-11-20T21:20:35.987Z,89.30
2022-11-20T21:23:30.429Z,86.70
2022-11-20T21:26:24.836Z,88.00
2022-11-20T21:29:19.785Z,86.30
2022-11-20T21:32:14.168Z,86.90
2022-11-20T21:35:08.989Z,86.90
2022-11-20T21:38:03.585Z,84.40
2022-11-20T21:41:01.410Z,83.90
2022-11-20T21:44:41.590Z,84.80
2022-11-20T21:47:11.261Z,81.00
2022-11-20T21:50:05.912Z,80.80
2022-11-20T21:53:00.369Z,79.10
2022-11-20T21:55:58.389Z,78.40
2022-11-20T21:58:56.957Z,78.20
2022-11-20T22:01:51.705Z,76.20
2022-11-20T22:04:47.024Z,72.00
2022-11-20T22:07:46.121Z,71.90
2022-11-20T22:10:40.545Z,71.60
2022-11-20T22:13:53.305Z,70.50
2022-11-20T22:16:48.026Z,69.30
2022-11-20T22:19:42.345Z,69.80
2022-11-20T22:22:36.764Z,66.80
2022-11-20T22:25:31.273Z,65.80
2022-11-20T22:28:25.725Z,64.60
2022-11-20T22:31:21.413Z,63.40
2022-11-20T22:34:16.699Z,64.10
2022-11-20T22:37:11.072Z,62.90
2022-11-20T22:40:05.626Z,65.10
2022-11-20T22:42:59.973Z,62.10
2022-11-20T22:45:54.387Z,62.50
2022-11-20T22:48:58.053Z,60.60
2022-11-20T22:51:52.507Z,62.60
2022-11-20T22:54:46.965Z,62.00
2022-11-20T22:57:41.356Z,63.30
2022-11-20T23:00:35.684Z,61.60
2022-11-20T23:03:30.104Z,61.10
2022-11-20T23:06:25.452Z,61.10
2022-11-20T23:09:19.889Z,60.90
2022-11-20T23:12:14.251Z,62.00
2022-11-20T23:15:09.458Z,62.80
2022-11-20T23:18:03.849Z,63.40
2022-11-20T23:20:58.512Z,62.10
2022-11-20T23:23:55.506Z,60.70
2022-11-20T23:26:49.917Z,61.10
2022-11-20T23:29:45.371Z,60.60
2022-11-20T23:32:39.818Z,61.50
2022-11-20T23:35:34.202Z,61.90
2022-11-20T23:38:28.760Z,62.10
2022-11-20T23:41:23.181Z,61.80
2022-11-20T23:44:17.885Z,61.90
2022-11-20T23:47:12.365Z,62.40
2022-11-20T23:50:07.141Z,58.70
2022-11-20T23:53:01.458Z,60.00
2022-11-20T23:55:59.145Z,60.20
2022-11-20T23:58:53.519Z,60.00
